Time;durP1;ratioP1;P1;durP2;ratioP2;P2;SDS_P1;SDS_P2;PMS_P1;PMS_P2;Temp;Humidity;BMP_temperature;BMP_pressure;BME280_temperature;BME280_humidity;BME280_pressure;Samples;Min_cycle;Max_cycle;Signal;HPM_P1;HPM_P2
2022/05/07 00:00:28;;;;;;;28.40;3.42;;;;;;;21.60;57.19;100078.59;7311669;19;159138;-38
2022/05/07 00:02:54;;;;;;;19.33;2.40;;;;;;;21.58;58.12;100079.69;7312969;19;131006;-37
2022/05/07 00:05:19;;;;;;;42.47;4.53;;;;;;;21.62;57.71;100075.84;7313314;19;129570;-38
2022/05/07 00:07:45;;;;;;;16.85;2.05;;;;;;;21.61;57.79;100077.66;7313686;19;128874;-38
2022/05/07 00:10:11;;;;;;;13.90;1.67;;;;;;;21.62;57.50;100081.09;7314457;19;129301;-38
2022/05/07 00:12:36;;;;;;;20.55;2.70;;;;;;;21.61;57.69;100080.28;7313611;19;129357;-37
2022/05/07 00:15:02;;;;;;;18.30;2.35;;;;;;;21.64;57.49;100074.78;7310285;19;154567;-37
2022/05/07 00:20:11;;;;;;;32.47;3.45;;;;;;;21.58;58.25;100075.31;7313176;19;129002;-38
2022/05/07 00:22:36;;;;;;;20.00;2.45;;;;;;;21.59;57.58;100079.56;7309603;19;159354;-38
2022/05/07 00:25:02;;;;;;;26.00;2.80;;;;;;;21.61;57.99;100075.06;7307768;19;153436;-37
2022/05/07 00:27:28;;;;;;;21.20;2.80;;;;;;;21.61;58.03;100076.81;7311920;19;129843;-38
2022/05/07 00:29:53;;;;;;;34.25;3.88;;;;;;;21.58;57.25;100074.47;7312689;19;130037;-38
2022/05/07 00:32:18;;;;;;;23.17;2.95;;;;;;;21.52;58.04;100059.25;7312338;19;129433;-38
2022/05/07 00:34:44;;;;;;;9.93;1.35;;;;;;;21.61;58.22;100074.22;7310679;19;142636;-37
2022/05/07 00:37:09;;;;;;;18.02;2.20;;;;;;;21.61;58.17;100075.06;7310539;19;154179;-38
2022/05/07 00:39:34;;;;;;;18.50;2.17;;;;;;;21.62;58.16;100079.31;7311667;19;158506;-37
2022/05/07 00:42:04;;;;;;;23.50;2.85;;;;;;;21.59;57.94;100071.72;7311644;19;150737;-37
2022/05/07 00:44:30;;;;;;;26.92;3.20;;;;;;;21.59;57.34;100071.72;7310743;19;129294;-37
2022/05/07 00:47:06;;;;;;;20.75;2.70;;;;;;;21.63;57.60;100078.38;7311702;19;129220;-37
2022/05/07 00:49:31;;;;;;;25.33;3.13;;;;;;;21.60;57.24;100069.94;7312849;19;130198;-38
2022/05/07 00:51:57;;;;;;;17.58;2.22;;;;;;;21.48;57.70;100050.88;7312142;19;157518;-37
2022/05/07 00:54:23;;;;;;;25.25;3.10;;;;;;;21.62;58.16;100071.47;7310208;19;154434;-38
2022/05/07 00:56:48;;;;;;;30.03;3.57;;;;;;;21.53;57.58;100051.31;7310634;19;130348;-37
2022/05/07 00:59:13;;;;;;;7.25;1.23;;;;;;;21.61;57.58;100069.81;7311819;19;129333;-38
2022/05/07 01:01:40;;;;;;;17.80;1.95;;;;;;;21.62;58.22;100063.63;7310121;19;158442;-37
2022/05/07 01:04:06;;;;;;;18.67;2.22;;;;;;;21.63;58.21;100060.06;7310154;19;129670;-38
2022/05/07 01:06:31;;;;;;;30.38;3.72;;;;;;;21.60;57.56;100065.53;7311392;19;128919;-37
2022/05/07 01:08:56;;;;;;;28.38;3.28;;;;;;;21.63;57.83;100065.28;7311399;19;130161;-37
2022/05/07 01:11:22;;;;;;;19.05;2.28;;;;;;;21.64;57.45;100069.56;7310971;19;129687;-38
2022/05/07 01:13:47;;;;;;;4.60;1.10;;;;;;;21.54;57.53;100045.13;7309535;19;154575;-37
2022/05/07 01:16:13;;;;;;;14.52;1.83;;;;;;;21.65;57.87;100065.97;7311100;19;129066;-37
2022/05/07 01:18:40;;;;;;;27.35;3.00;;;;;;;21.60;57.96;100057.66;7311620;19;130506;-38
2022/05/07 01:21:13;;;;;;;17.63;2.20;;;;;;;21.64;58.01;100059.09;7312780;19;129542;-38
2022/05/07 01:23:41;;;;;;;21.88;2.83;;;;;;;21.62;57.32;100058.38;7309096;19;128975;-38
2022/05/07 01:26:06;;;;;;;29.27;3.15;;;;;;;21.62;57.61;100054.94;7310907;19;128979;-38
2022/05/07 01:28:32;;;;;;;12.88;2.10;;;;;;;21.52;57.30;100047.03;7311420;19;129744;-37
2022/05/07 01:30:57;;;;;;;20.58;2.75;;;;;;;21.64;57.86;100061.69;7308742;19;158295;-37
2022/05/07 01:33:22;;;;;;;16.13;1.92;;;;;;;21.63;58.10;100061.84;7310924;19;133812;-38
2022/05/07 01:35:47;;;;;;;25.73;2.63;;;;;;;21.64;57.94;100056.47;7309188;19;129587;-38
2022/05/07 01:38:13;;;;;;;16.00;2.10;;;;;;;21.57;58.09;100051.88;7308835;19;152079;-37
2022/05/07 01:40:38;;;;;;;20.43;2.37;;;;;;;21.65;57.73;100055.50;7308406;19;158497;-38
2022/05/07 01:43:03;;;;;;;30.63;3.77;;;;;;;21.69;58.04;100061.31;7308035;19;153890;-38
2022/05/07 01:45:28;;;;;;;50.75;5.88;;;;;;;21.67;57.69;100061.44;7309417;19;142143;-38
2022/05/07 01:48:09;;;;;;;17.40;2.27;;;;;;;21.66;57.79;100062.41;7308182;19;158586;-37
2022/05/07 01:50:34;;;;;;;23.70;2.60;;;;;;;21.65;58.17;100063.34;7310850;19;130793;-38
2022/05/07 01:52:59;;;;;;;19.33;2.20;;;;;;;21.66;57.74;100057.19;7310533;19;129309;-38
2022/05/07 01:55:25;;;;;;;46.70;5.47;;;;;;;21.65;57.72;100059.94;7308163;19;153825;-38
2022/05/07 01:57:50;;;;;;;13.70;1.83;;;;;;;21.63;58.17;100054.81;7308604;19;158856;-37
2022/05/07 02:00:16;;;;;;;15.80;1.92;;;;;;;21.68;57.88;100060.47;7308459;19;158543;-38
2022/05/07 02:02:41;;;;;;;19.35;2.47;;;;;;;21.62;57.97;100062.78;7309231;19;129019;-38
2022/05/07 02:05:06;;;;;;;14.68;1.80;;;;;;;21.63;58.41;100057.44;7306106;19;154259;-38
2022/05/07 02:07:31;;;;;;;33.90;3.88;;;;;;;21.63;57.43;100061.84;7307927;19;131190;-37
2022/05/07 02:09:57;;;;;;;20.58;2.60;;;;;;;21.65;57.73;100059.94;7309613;19;129744;-38
2022/05/07 02:12:22;;;;;;;23.25;2.83;;;;;;;21.65;57.95;100060.72;7309231;19;154292;-37
2022/05/07 02:14:47;;;;;;;23.80;2.45;;;;;;;21.53;57.72;100048.69;7306081;19;154453;-39
2022/05/07 02:17:13;;;;;;;12.48;1.67;;;;;;;21.62;57.69;100061.00;7308607;19;141278;-39
2022/05/07 02:19:38;;;;;;;21.95;2.80;;;;;;;21.65;57.72;100060.72;7309548;19;130265;-38
2022/05/07 02:22:03;;;;;;;16.40;1.90;;;;;;;21.65;58.01;100058.13;7309290;19;132056;-39
2022/05/07 02:24:28;;;;;;;28.15;3.15;;;;;;;21.64;57.41;100061.69;7307555;19;128945;-39
2022/05/07 02:26:54;;;;;;;36.20;4.28;;;;;;;21.60;58.18;100051.63;7306476;19;158614;-40
2022/05/07 02:29:20;;;;;;;15.02;1.77;;;;;;;21.64;57.67;100058.25;7308689;19;157592;-39
2022/05/07 02:32:03;;;;;;;6.60;1.27;;;;;;;21.64;57.82;100063.47;7308645;19;129042;-39
2022/05/07 02:34:35;;;;;;;29.70;3.50;;;;;;;21.63;58.21;100054.81;7307441;19;130071;-39
2022/05/07 02:37:01;;;;;;;23.65;2.90;;;;;;;21.56;58.60;100042.38;7306877;19;129285;-38
2022/05/07 02:39:27;;;;;;;29.25;3.45;;;;;;;21.67;58.02;100053.59;7308202;19;132898;-39
2022/05/07 02:44:37;;;;;;;15.95;2.38;;;;;;;21.65;58.27;100060.72;7307038;19;128865;-39
2022/05/07 02:47:04;;;;;;;26.38;3.08;;;;;;;21.65;57.95;100060.72;7311043;19;129087;-40
2022/05/07 02:49:29;;;;;;;35.97;3.97;;;;;;;21.65;58.17;100065.97;7316325;19;130543;-39
2022/05/07 02:51:55;;;;;;;23.13;2.72;;;;;;;21.66;57.45;100059.78;7315979;19;129902;-40
2022/05/07 02:54:20;;;;;;;15.60;2.22;;;;;;;21.65;58.17;100059.94;7313170;19;156926;-38
2022/05/07 02:56:45;;;;;;;8.10;1.20;;;;;;;21.65;57.74;100065.97;7313992;19;157436;-38
2022/05/07 02:59:10;;;;;;;29.80;3.47;;;;;;;21.65;57.75;100059.94;7315411;19;158674;-37
2022/05/07 03:01:36;;;;;;;31.83;3.45;;;;;;;21.65;57.91;100055.50;7314382;19;155497;-37
2022/05/07 03:04:01;;;;;;;20.27;2.35;;;;;;;21.69;57.75;100059.53;7313507;19;153995;-38
2022/05/07 03:06:26;;;;;;;29.45;3.80;;;;;;;21.66;57.63;100057.19;7314071;19;158551;-38
2022/05/07 03:08:52;;;;;;;34.13;3.50;;;;;;;21.64;58.01;100063.47;7315444;19;157851;-38
2022/05/07 03:11:17;;;;;;;12.95;1.95;;;;;;;21.68;57.71;100059.66;7316233;19;129437;-37
2022/05/07 03:13:42;;;;;;;14.13;1.92;;;;;;;21.68;57.88;100055.22;7314493;19;130707;-37
2022/05/07 03:16:08;;;;;;;10.55;1.73;;;;;;;21.61;58.04;100048.88;7312824;19;158380;-37
2022/05/07 03:18:35;;;;;;;30.35;3.35;;;;;;;21.66;58.10;100058.97;7313466;19;157410;-38
2022/05/07 03:21:00;;;;;;;23.73;2.75;;;;;;;21.65;58.02;100060.72;7314890;19;129353;-38
2022/05/07 03:23:26;;;;;;;35.67;4.22;;;;;;;21.65;57.60;100060.72;7314200;19;129882;-37
2022/05/07 03:25:51;;;;;;;13.77;1.65;;;;;;;21.65;57.84;100060.72;7313230;19;158439;-37
2022/05/07 03:28:17;;;;;;;13.25;1.98;;;;;;;21.65;57.79;100060.72;7312725;19;158635;-38
2022/05/07 03:30:42;;;;;;;21.48;2.35;;;;;;;21.66;58.27;100061.56;7316203;19;129666;-38
2022/05/07 03:33:07;;;;;;;25.88;3.45;;;;;;;21.68;57.63;100070.13;7312102;19;154132;-38
2022/05/07 03:35:33;;;;;;;33.28;4.05;;;;;;;21.65;57.95;100060.72;7311957;19;146387;-38
2022/05/07 03:37:58;;;;;;;17.93;2.03;;;;;;;21.67;58.26;100065.84;7312878;19;149110;-40
2022/05/07 03:40:23;;;;;;;18.95;2.22;;;;;;;21.69;57.64;100067.38;7312998;19;154487;-38
2022/05/07 03:42:48;;;;;;;17.92;2.15;;;;;;;21.67;57.61;100066.69;7313517;19;148436;-38
2022/05/07 03:45:13;;;;;;;12.80;1.50;;;;;;;21.70;57.80;100063.78;7312864;19;158490;-38
2022/05/07 03:47:39;;;;;;;18.55;2.28;;;;;;;21.65;58.12;100071.19;7311148;19;158536;-38
2022/05/07 03:50:05;;;;;;;20.77;2.60;;;;;;;21.64;57.94;100059.09;7313686;19;129409;-39
2022/05/07 03:55:16;;;;;;;16.33;2.08;;;;;;;21.66;57.88;100067.66;7315138;19;129930;-40
2022/05/07 03:57:41;;;;;;;18.70;2.35;;;;;;;21.66;57.59;100065.03;7312044;19;130289;-38
2022/05/07 04:00:07;;;;;;;12.52;1.50;;;;;;;21.68;58.31;100072.75;7312639;19;154390;-39
2022/05/07 04:02:35;;;;;;;33.88;3.72;;;;;;;21.68;57.82;100075.38;7313811;19;129144;-39
2022/05/07 04:05:00;;;;;;;21.15;2.65;;;;;;;21.64;57.92;100074.78;7311049;19;130343;-39
2022/05/07 04:07:26;;;;;;;25.50;2.95;;;;;;;21.67;57.85;100084.16;7312476;19;129588;-39
2022/05/07 04:09:54;;;;;;;23.15;2.58;;;;;;;21.69;57.52;100083.09;7312348;19;155327;-40
2022/05/07 04:12:20;;;;;;;22.02;2.55;;;;;;;21.66;58.47;100072.88;7314626;19;129766;-38
2022/05/07 04:14:45;;;;;;;18.55;2.17;;;;;;;21.57;58.30;100063.16;7311518;19;129493;-39
2022/05/07 04:17:10;;;;;;;15.77;1.73;;;;;;;21.62;58.29;100081.94;7311837;19;136366;-40
2022/05/07 04:19:36;;;;;;;18.60;2.20;;;;;;;21.67;57.98;100089.38;7313296;19;154764;-40
2022/05/07 04:22:01;;;;;;;16.85;2.15;;;;;;;21.68;57.91;100086.63;7313342;19;129561;-39
2022/05/07 04:24:27;;;;;;;25.08;3.17;;;;;;;21.66;58.23;100088.59;7312764;19;131243;-41
2022/05/07 04:26:52;;;;;;;17.08;2.35;;;;;;;21.71;58.24;100096.88;7309907;19;129792;-38
2022/05/07 04:29:17;;;;;;;23.52;2.90;;;;;;;21.69;57.80;100088.31;7313721;19;129268;-38
2022/05/07 04:31:44;;;;;;;25.45;2.63;;;;;;;21.66;58.06;100088.59;7311336;19;129791;-38
2022/05/07 04:34:09;;;;;;;13.52;1.75;;;;;;;21.67;58.23;100086.78;7312812;19;130223;-38
2022/05/07 04:36:34;;;;;;;22.00;2.60;;;;;;;21.65;58.17;100097.38;7310739;19;130805;-38
2022/05/07 04:39:00;;;;;;;50.05;5.47;;;;;;;21.69;57.93;100093.56;7307920;19;154962;-37
2022/05/07 04:41:25;;;;;;;34.33;3.73;;;;;;;21.67;58.09;100095.47;7308496;19;153917;-38
2022/05/07 04:43:51;;;;;;;27.88;3.10;;;;;;;21.66;58.17;100093.81;7308650;19;130541;-37
2022/05/07 04:46:17;;;;;;;22.13;2.80;;;;;;;21.65;57.48;100097.38;7311042;19;132328;-38
2022/05/07 04:48:43;;;;;;;16.67;2.15;;;;;;;21.67;58.64;100105.09;7312199;19;128858;-38
2022/05/07 04:51:08;;;;;;;36.65;3.85;;;;;;;21.56;57.64;100086.84;7307199;19;130172;-38
2022/05/07 04:53:33;;;;;;;19.23;2.20;;;;;;;21.63;57.66;100107.16;7309443;19;153656;-37
2022/05/07 04:55:58;;;;;;;34.47;4.07;;;;;;;21.66;58.48;100104.28;7309744;19;141117;-38
2022/05/07 04:58:24;;;;;;;19.20;2.30;;;;;;;21.69;57.75;100103.19;7307484;19;154707;-38
2022/05/07 05:00:49;;;;;;;15.13;1.90;;;;;;;21.66;57.36;100104.28;7312465;19;132305;-37
2022/05/07 05:03:15;;;;;;;14.38;1.95;;;;;;;21.68;57.93;100107.56;7308104;19;160007;-38
2022/05/07 05:05:41;;;;;;;21.73;2.42;;;;;;;21.68;58.45;100107.56;7310684;19;129799;-38
2022/05/07 05:08:07;;;;;;;22.95;2.78;;;;;;;21.65;57.64;100102.59;7310178;19;129250;-38
2022/05/07 05:10:32;;;;;;;23.00;2.75;;;;;;;21.65;57.33;100107.84;7309864;19;129130;-38
2022/05/07 05:12:57;;;;;;;25.20;3.08;;;;;;;21.66;58.37;100109.50;7311943;19;130262;-38
2022/05/07 05:15:22;;;;;;;37.87;5.00;;;;;;;21.65;58.03;100107.03;7307732;19;158536;-38
2022/05/07 05:17:48;;;;;;;23.05;2.67;;;;;;;21.66;58.18;100104.28;7308452;19;154339;-38
2022/05/07 05:20:14;;;;;;;17.75;2.22;;;;;;;21.66;58.02;100103.44;7309006;19;153028;-40
2022/05/07 05:22:46;;;;;;;19.52;2.25;;;;;;;21.67;57.75;100111.16;7308658;19;130072;-40
2022/05/07 05:25:11;;;;;;;30.95;3.28;;;;;;;21.67;58.13;100112.94;7306328;19;130494;-38
2022/05/07 05:27:36;;;;;;;23.40;2.45;;;;;;;21.68;58.20;100107.56;7309498;19;154366;-41
2022/05/07 05:30:01;;;;;;;26.27;3.05;;;;;;;21.68;57.71;100115.41;7308579;19;154102;-40
2022/05/07 05:32:27;;;;;;;35.17;4.28;;;;;;;21.55;58.15;100095.66;7306870;19;136349;-40
2022/05/07 05:34:52;;;;;;;21.83;2.83;;;;;;;21.64;58.23;100116.66;7308252;19;158601;-39
2022/05/07 05:37:18;;;;;;;21.73;2.63;;;;;;;21.68;57.52;100117.22;7306886;19;155075;-40
2022/05/07 05:39:44;;;;;;;16.52;1.88;;;;;;;21.66;58.13;100122.59;7307876;19;129332;-40
2022/05/07 05:42:09;;;;;;;24.55;2.90;;;;;;;21.55;57.52;100106.13;7309676;19;129448;-39
2022/05/07 05:44:38;;;;;;;28.13;3.75;;;;;;;21.67;58.34;100126.84;7302403;19;158614;-38
2022/05/07 05:47:05;;;;;;;21.63;2.70;;;;;;;21.63;57.75;100127.25;7308303;19;129036;-41
2022/05/07 05:49:30;;;;;;;50.33;5.85;;;;;;;21.57;58.18;100110.25;7305678;19;130190;-39
2022/05/07 05:51:56;;;;;;;20.20;2.55;;;;;;;21.64;58.19;100116.66;7310194;19;130227;-39
2022/05/07 05:54:21;;;;;;;31.20;3.33;;;;;;;21.65;57.66;100123.53;7304595;19;159157;-35
2022/05/07 05:56:46;;;;;;;16.25;1.92;;;;;;;21.70;57.72;100123.97;7302737;19;152919;-39
2022/05/07 05:59:11;;;;;;;18.50;2.22;;;;;;;21.66;57.84;100125.22;7308260;19;154311;-39
2022/05/07 06:01:37;;;;;;;31.95;3.38;;;;;;;21.63;57.86;100125.47;7305821;19;159022;-41
2022/05/07 06:04:02;;;;;;;23.85;2.92;;;;;;;21.69;58.43;100135.41;7308352;19;131795;-41
2022/05/07 06:06:27;;;;;;;34.33;3.92;;;;;;;21.69;57.60;100124.94;7304347;19;155218;-37
2022/05/07 06:08:52;;;;;;;15.35;2.10;;;;;;;21.68;57.86;100130.31;7306413;19;154202;-40
2022/05/07 06:11:19;;;;;;;33.35;3.45;;;;;;;21.70;58.06;100126.59;7306963;19;158640;-39
2022/05/07 06:13:45;;;;;;;26.90;3.00;;;;;;;21.65;58.14;100128.75;7305638;19;129989;-40
2022/05/07 06:16:10;;;;;;;39.38;4.85;;;;;;;21.66;57.74;100129.59;7306331;19;129590;-37
2022/05/07 06:18:36;;;;;;;21.10;2.67;;;;;;;21.66;58.01;100127.84;7307303;19;129173;-38
2022/05/07 06:21:02;;;;;;;23.75;2.67;;;;;;;21.68;58.09;100127.69;7310550;19;134647;-40
2022/05/07 06:23:28;;;;;;;;;;;;;;;21.74;58.15;100120.16;7312252;19;130734;-38
2022/05/07 06:28:37;;;;;;;19.13;2.65;;;;;;;21.59;57.65;100103.13;7313728;19;129830;-40
2022/05/07 06:31:03;;;;;;;14.55;1.90;;;;;;;21.75;58.29;100123.63;7314899;19;159800;-41
2022/05/07 06:33:28;;;;;;;28.40;3.42;;;;;;;21.71;57.43;100125.66;7312796;19;129372;-39
2022/05/07 06:35:54;;;;;;;18.67;2.22;;;;;;;21.70;57.71;100121.38;7315099;19;129120;-40
2022/05/07 06:38:19;;;;;;;27.17;3.03;;;;;;;21.68;57.52;100123.28;7315114;19;130223;-39
2022/05/07 06:40:44;;;;;;;19.95;2.60;;;;;;;21.66;57.58;100121.75;7313635;19;159488;-39
2022/05/07 06:43:10;;;;;;;17.27;2.20;;;;;;;21.60;56.97;100110.00;7313558;19;158393;-39
2022/05/07 06:45:35;;;;;;;23.10;2.88;;;;;;;21.69;57.61;100117.09;7311919;19;129485;-40
2022/05/07 06:48:01;;;;;;;5.93;1.38;;;;;;;21.65;57.07;100123.53;7315006;19;139434;-38
2022/05/07 06:50:26;;;;;;;29.75;3.58;;;;;;;21.70;58.01;100120.56;7315296;19;129221;-40
2022/05/07 06:52:52;;;;;;;23.80;2.83;;;;;;;21.68;57.22;100128.50;7316293;19;129202;-40
2022/05/07 06:55:19;;;;;;;38.92;4.47;;;;;;;21.67;56.96;100126.84;7312549;19;130988;-39
2022/05/07 06:57:46;;;;;;;12.40;2.17;;;;;;;21.58;57.62;100109.31;7313825;19;129015;-40
2022/05/07 07:00:13;;;;;;;94.43;10.70;;;;;;;21.60;57.51;100125.69;7307057;19;129998;-38
2022/05/07 07:02:39;;;;;;;22.95;2.80;;;;;;;21.55;57.46;100116.59;7310173;19;129460;-39
2022/05/07 07:05:05;;;;;;;19.07;2.50;;;;;;;21.65;57.24;100134.00;7310357;19;131666;-41
2022/05/07 07:07:31;;;;;;;25.38;3.20;;;;;;;21.64;56.57;100129.75;7305576;19;129466;-39
2022/05/07 07:09:56;;;;;;;31.13;3.70;;;;;;;21.65;57.76;100131.38;7313633;19;129537;-40
2022/05/07 07:12:22;;;;;;;38.50;4.25;;;;;;;21.67;57.66;100137.34;7311074;19;155140;-38
2022/05/07 07:14:47;;;;;;;24.95;3.08;;;;;;;21.57;57.47;100120.72;7311534;19;129587;-39
2022/05/07 07:17:17;;;;;;;14.18;1.90;;;;;;;21.70;57.46;100137.06;7312889;19;129860;-41
2022/05/07 07:19:43;;;;;;;7.07;1.38;;;;;;;21.69;57.17;100143.28;7311207;19;130090;-40
2022/05/07 07:22:09;;;;;;;27.33;3.23;;;;;;;21.66;57.83;100140.91;7314291;19;130387;-40
2022/05/07 07:24:34;;;;;;;35.05;4.43;;;;;;;21.69;57.73;100134.59;7309822;19;129025;-40
2022/05/07 07:26:59;;;;;;;29.65;3.83;;;;;;;21.64;57.48;100132.34;7309474;19;154284;-39
2022/05/07 07:29:25;;;;;;;39.40;4.22;;;;;;;21.70;56.90;100134.44;7311483;19;132071;-40
2022/05/07 07:31:50;;;;;;;31.83;4.00;;;;;;;21.69;57.30;100130.19;7311800;19;130027;-39
2022/05/07 07:34:15;;;;;;;29.27;3.40;;;;;;;21.66;56.74;100129.59;7311542;19;130143;-39
2022/05/07 07:36:44;;;;;;;22.10;3.35;;;;;;;21.70;56.96;100131.84;7308951;19;154161;-39
2022/05/07 07:39:09;;;;;;;33.53;4.43;;;;;;;21.69;56.58;100130.19;7312517;19;129115;-40
2022/05/07 07:41:35;;;;;;;43.65;5.05;;;;;;;21.77;55.27;100129.56;7310597;19;129449;-40
2022/05/07 07:44:00;;;;;;;29.15;4.18;;;;;;;21.78;54.56;100123.41;7310576;19;130516;-40
2022/05/07 07:49:09;;;;;;;27.77;3.70;;;;;;;21.78;54.66;100126.00;7313438;19;129215;-40
2022/05/07 07:51:34;;;;;;;23.67;3.60;;;;;;;21.71;55.23;100103.88;7313050;19;130960;-41
2022/05/07 07:53:59;;;;;;;32.83;4.50;;;;;;;21.78;55.07;100112.94;7312458;19;129075;-40
2022/05/07 07:56:25;;;;;;;23.98;3.17;;;;;;;21.78;54.79;100118.97;7311255;19;141675;-38
2022/05/07 07:58:51;;;;;;;23.85;3.15;;;;;;;21.81;54.21;100116.13;7311684;19;159136;-38
2022/05/07 08:01:16;;;;;;;32.97;4.03;;;;;;;21.75;53.62;100092.22;7310590;19;129336;-40
2022/05/07 08:03:42;;;;;;;18.92;2.72;;;;;;;21.86;55.02;100105.25;7310685;19;130779;-40
2022/05/07 08:06:07;;;;;;;25.98;4.03;;;;;;;21.83;54.72;100114.19;7307107;19;147330;-39
2022/05/07 08:14:00;;;;;;;35.92;5.05;;;;;;;21.78;54.26;100113.72;7305374;19;129984;-38
2022/05/07 08:16:25;;;;;;;30.48;4.00;;;;;;;21.79;53.95;100125.88;7303845;19;129320;-39
2022/05/07 08:18:51;;;;;;;25.02;3.65;;;;;;;21.78;54.34;100118.97;7308007;19;133637;-39
2022/05/07 08:21:17;;;;;;;40.53;5.43;;;;;;;21.79;54.51;100125.03;7305887;19;130674;-37
2022/05/07 08:23:42;;;;;;;33.72;4.43;;;;;;;21.79;54.33;100122.44;7304088;19;129444;-37
2022/05/07 08:26:08;;;;;;;28.88;4.57;;;;;;;21.79;53.99;100118.03;7303749;19;129798;-40
2022/05/07 08:28:36;;;;;;;30.00;4.60;;;;;;;21.83;54.81;100118.59;7305090;19;130442;-38
2022/05/07 08:31:02;;;;;;;30.15;4.20;;;;;;;21.76;54.07;100120.03;7305066;19;130542;-39
2022/05/07 08:33:28;;;;;;;28.17;4.03;;;;;;;21.72;50.37;100119.47;7306058;19;129803;-39
2022/05/07 08:35:54;;;;;;;;;;;;;;;21.78;54.86;100107.69;7305443;19;129763;-39
2022/05/07 08:38:19;;;;;;;28.53;4.10;;;;;;;21.71;51.18;100116.97;7306264;19;153895;-39
2022/05/07 08:40:45;;;;;;;45.05;4.72;;;;;;;21.76;50.70;100114.81;7305020;19;160745;-40
2022/05/07 08:43:10;;;;;;;29.63;4.25;;;;;;;21.83;52.39;100116.78;7308695;19;129940;-38
2022/05/07 08:45:36;;;;;;;20.35;3.53;;;;;;;21.84;51.34;100110.63;7301049;19;129119;-38
2022/05/07 08:48:02;;;;;;;23.80;3.30;;;;;;;21.84;48.99;100113.25;7309109;19;129833;-39
2022/05/07 08:50:27;;;;;;;39.10;4.75;;;;;;;21.82;47.94;100120.38;7312139;19;130815;-38
2022/05/07 08:52:53;;;;;;;29.15;3.63;;;;;;;21.82;49.54;100114.31;7310868;19;140046;-41
2022/05/07 08:55:20;;;;;;;37.05;4.30;;;;;;;21.84;48.74;100113.25;7311772;19;154235;-38
2022/05/07 08:57:48;;;;;;;;;;;;;;;21.89;51.06;100115.47;7313439;19;129039;-39
2022/05/07 09:00:16;;;;;;;16.77;2.67;;;;;;;21.83;48.01;100113.38;7312642;19;129859;-38
2022/05/07 09:02:44;;;;;;;26.45;3.17;;;;;;;21.84;46.09;100113.25;7310852;19;128961;-39
2022/05/07 09:05:11;;;;;;;19.10;2.60;;;;;;;21.85;46.07;100107.03;7309286;19;129244;-40
2022/05/07 09:07:36;;;;;;;;;;;;;;;21.88;48.95;100106.78;7310882;19;129630;-37
2022/05/07 09:10:09;;;;;;;24.13;3.20;;;;;;;21.82;48.55;100109.91;7311223;19;129359;-38
2022/05/07 09:12:34;;;;;;;27.00;3.30;;;;;;;21.80;48.39;100106.59;7311256;19;129977;-37
2022/05/07 09:15:01;;;;;;;37.97;4.57;;;;;;;21.79;49.79;100110.19;7307776;19;129045;-42
2022/05/07 09:17:26;;;;;;;42.90;5.28;;;;;;;21.82;49.65;100109.91;7307995;19;130951;-38
2022/05/07 09:19:52;;;;;;;32.38;4.25;;;;;;;21.78;50.08;100110.31;7309473;19;158507;-38
2022/05/07 09:22:17;;;;;;;41.47;3.67;;;;;;;21.71;49.90;100096.03;7310853;19;155294;-38
2022/05/07 09:24:53;;;;;;;22.98;3.15;;;;;;;21.82;50.63;100115.16;7309331;19;132107;-38
2022/05/07 09:27:18;;;;;;;17.65;2.33;;;;;;;21.77;49.67;100114.72;7309567;19;130279;-38
2022/05/07 09:29:43;;;;;;;24.33;3.25;;;;;;;21.81;49.77;100108.28;7308108;19;159848;-38
2022/05/07 09:32:16;;;;;;;18.58;2.60;;;;;;;21.82;49.59;100103.84;7309492;19;141463;-37
2022/05/07 09:37:35;;;;;;;28.88;3.63;;;;;;;21.85;47.60;100104.41;7310178;19;128922;-37
2022/05/07 09:40:09;;;;;;;31.42;4.07;;;;;;;21.84;50.14;100099.31;7311916;19;130729;-37
2022/05/07 09:42:34;;;;;;;29.50;3.58;;;;;;;21.81;47.75;100105.66;7311133;19;129087;-37
2022/05/07 09:45:01;;;;;;;26.88;3.30;;;;;;;21.82;46.92;100093.38;7308852;19;129800;-38
2022/05/07 09:47:30;;;;;;;24.55;3.15;;;;;;;21.83;49.02;100098.47;7309614;19;129105;-39
2022/05/07 09:58:09;;;;;;;11.90;2.15;;;;;;;21.73;47.10;100087.09;7317443;19;128881;-39
2022/05/07 10:00:40;;;;;;;31.05;3.78;;;;;;;21.79;47.77;100084.00;7315274;19;158104;-38
2022/05/07 10:03:31;;;;;;;17.48;2.42;;;;;;;21.72;48.50;100080.19;7317098;19;128917;-39
2022/05/07 10:06:30;;;;;;;52.40;5.70;;;;;;;21.72;48.34;100088.06;7312084;19;129272;-40
2022/05/07 10:09:16;;;;;;;37.15;4.22;;;;;;;21.79;48.86;100078.78;7316535;19;131453;-39
2022/05/07 10:11:42;;;;;;;20.05;2.97;;;;;;;21.73;47.38;100081.84;7315135;19;130866;-38
2022/05/07 10:14:08;;;;;;;17.80;2.15;;;;;;;21.72;47.82;100081.97;7315261;19;129462;-40
2022/05/07 10:16:33;;;;;;;44.05;5.22;;;;;;;21.76;47.28;100071.19;7312778;19;129719;-39
2022/05/07 10:19:10;;;;;;;19.98;2.65;;;;;;;21.77;49.77;100080.69;7314003;19;157215;-40
2022/05/07 10:21:36;;;;;;;20.45;2.78;;;;;;;21.77;48.86;100080.69;7316499;19;131069;-40
2022/05/07 10:24:02;;;;;;;37.28;4.15;;;;;;;21.70;48.61;100073.44;7312424;19;154817;-41
2022/05/07 10:26:41;;;;;;;14.10;2.47;;;;;;;21.80;49.71;100079.56;7315148;19;130024;-38
2022/05/07 10:29:07;;;;;;;21.42;2.75;;;;;;;21.76;48.79;100079.03;7316099;19;129168;-40
2022/05/07 10:31:44;;;;;;;28.92;3.90;;;;;;;21.78;49.74;100084.13;7313752;19;129624;-41
2022/05/07 10:34:09;;;;;;;24.07;2.50;;;;;;;21.74;50.22;100078.28;7313759;19;129462;-40
2022/05/07 10:36:35;;;;;;;13.57;2.45;;;;;;;21.69;49.46;100075.22;7313805;19;129222;-41
2022/05/07 10:39:08;;;;;;;35.75;4.30;;;;;;;21.68;50.44;100070.94;7315823;19;129301;-40
2022/05/07 10:41:33;;;;;;;19.27;2.97;;;;;;;21.67;50.41;100069.28;7316074;19;130434;-40
2022/05/07 10:44:05;;;;;;;26.42;3.60;;;;;;;21.69;50.42;100064.75;7314134;19;130214;-39
2022/05/07 10:46:44;;;;;;;22.05;3.15;;;;;;;21.73;50.93;100065.34;7314191;19;129736;-40
2022/05/07 10:49:10;;;;;;;19.40;3.10;;;;;;;21.62;49.58;100049.69;7314813;19;129237;-42
2022/05/07 10:51:53;;;;;;;27.02;3.72;;;;;;;21.72;49.54;100067.13;7315232;19;130475;-39
2022/05/07 10:54:23;;;;;;;34.95;3.95;;;;;;;21.71;50.80;100065.47;7314277;19;128999;-38
2022/05/07 10:56:54;;;;;;;24.75;3.15;;;;;;;21.62;50.77;100047.06;7313782;19;129108;-37
2022/05/07 10:59:21;;;;;;;30.58;3.95;;;;;;;21.75;50.99;100056.38;7314512;19;129247;-38
2022/05/07 11:01:47;;;;;;;19.88;2.63;;;;;;;21.69;49.18;100056.91;7315894;19;129117;-41
2022/05/07 11:04:13;;;;;;;14.23;1.88;;;;;;;21.68;50.95;100055.22;7314500;19;128985;-39
2022/05/07 11:06:47;;;;;;;21.70;2.85;;;;;;;21.68;51.22;100047.38;7311076;19;129398;-38
2022/05/07 11:09:20;;;;;;;24.02;3.05;;;;;;;21.72;50.83;100054.03;7314503;19;130269;-41
2022/05/07 11:11:47;;;;;;;19.63;2.55;;;;;;;21.69;49.36;100054.28;7313372;19;130280;-40
2022/05/07 11:14:41;;;;;;;52.72;6.03;;;;;;;21.68;51.33;100050.00;7309971;19;130278;-39
2022/05/07 11:17:07;;;;;;;24.10;3.03;;;;;;;21.70;49.56;100042.84;7312119;19;153882;-39
2022/05/07 11:19:34;;;;;;;44.42;5.32;;;;;;;21.71;50.29;100057.63;7311524;19;158378;-40
2022/05/07 11:22:01;;;;;;;25.15;3.17;;;;;;;21.62;48.99;100034.84;7313903;19;130727;-40
2022/05/07 11:24:33;;;;;;;27.25;3.67;;;;;;;21.73;50.93;100053.06;7314073;19;129118;-39
2022/05/07 11:27:05;;;;;;;24.48;3.20;;;;;;;21.73;51.07;100049.63;7312804;19;130687;-39
2022/05/07 11:29:31;;;;;;;25.55;3.55;;;;;;;21.70;49.00;100048.09;7312104;19;130628;-40
2022/05/07 11:32:07;;;;;;;21.38;3.03;;;;;;;21.70;51.35;100050.72;7312239;19;129510;-39
2022/05/07 11:34:33;;;;;;;27.90;3.40;;;;;;;21.69;50.94;100040.38;7313233;19;129290;-39
2022/05/07 11:37:11;;;;;;;34.50;4.63;;;;;;;21.62;51.25;100039.22;7313267;19;129425;-39